Portada
METAR-TAF:

METAR-TAF

Aeropuertos :

Aeropuerto Internacional de Kunming-Changshui

Kunming, China

latitud: 25-01N, longitud: 102-41E, altitud: 1892 m

Observación

El informe se hizo hace 53 minutos, a las 14:00 UTC
Viento 12 kt del suroeste
Temperatura 20°C
Humedad 30%
Presión 1019 hPa
Visibilidad 10 km o más
sin nubes por debajo de 1500 m y sin presencia de cumulonimbus.

METAR: ZPPP 241400Z 22006MPS CAVOK 20/02 Q1019 NOSIG

Hora: 22:53 (14:53 UTC)

Pronóstico

El informe se hizo hace 7 horas y 49 minutos, a las 07:04 UTC
Pronóstico válido del 24 a las 12 UTC al 25 a las 12 UTC
Viento 14 kt del suroeste
Visibilidad 10 km o más
Nubes dispersas a una altura de 2600 ft

TAF: ZPPP 240704Z 2412/2512 23007MPS 9999 SCT026 TX28/2508Z TN13/2423Z

Observaciones y pronósticos meteorológicos de más de 4000 aeropuertos (mensajes METAR y TAF).

Los puntos amarillos y rojos representan las estaciones disponibles.

Ponga el ratón en el punto deseado para ver el nombre de la estación.

Haga clic para ver las observaciones y los pronósticos meteorológicos.

Para cambiar el mapa : haga clic en los botones verdes con una cruz de color negro para hacer un zoom, en el botón verde con un guión para alejar o en las flechas verdes para mapas adyacentes.


METAR-TAF: